sensor_id;sensor_type;location;lat;lon;timestamp;pressure;altitude;pressure_sealevel;temperature;humidity
23616;BME280;11985;49.404;7.734;2022-09-09T00:00:47;96885.88;;;12.85;99.54
23616;BME280;11985;49.404;7.734;2022-09-09T00:02:57;96882.78;;;12.88;99.43
23616;BME280;11985;49.404;7.734;2022-09-09T00:05:17;96875.66;;;12.89;99.29
23616;BME280;11985;49.404;7.734;2022-09-09T00:07:36;96878.06;;;12.90;99.34
23616;BME280;11985;49.404;7.734;2022-09-09T00:09:45;96877.25;;;12.90;99.15
23616;BME280;11985;49.404;7.734;2022-09-09T00:11:52;96867.50;;;12.90;99.18
23616;BME280;11985;49.404;7.734;2022-09-09T00:13:56;96869.91;;;12.92;99.31
23616;BME280;11985;49.404;7.734;2022-09-09T00:16:03;96868.53;;;12.89;99.12
23616;BME280;11985;49.404;7.734;2022-09-09T00:18:14;96877.25;;;12.90;99.12
23616;BME280;11985;49.404;7.734;2022-09-09T00:20:19;96874.84;;;12.88;99.15
23616;BME280;11985;49.404;7.734;2022-09-09T00:22:26;96874.03;;;12.88;99.00
23616;BME280;11985;49.404;7.734;2022-09-09T00:24:38;96863.94;;;12.85;98.84
23616;BME280;11985;49.404;7.734;2022-09-09T00:26:45;96866.81;;;12.83;98.83
23616;BME280;11985;49.404;7.734;2022-09-09T00:28:52;96871.97;;;12.78;98.95
23616;BME280;11985;49.404;7.734;2022-09-09T00:30:59;96876.09;;;12.74;98.78
23616;BME280;11985;49.404;7.734;2022-09-09T00:33:11;96874.72;;;12.72;98.83
23616;BME280;11985;49.404;7.734;2022-09-09T00:35:18;96859.31;;;12.68;98.71
23616;BME280;11985;49.404;7.734;2022-09-09T00:37:24;96870.94;;;12.67;98.77
23616;BME280;11985;49.404;7.734;2022-09-09T00:39:32;96868.28;;;12.67;98.91
23616;BME280;11985;49.404;7.734;2022-09-09T00:41:47;96862.41;;;12.65;98.95
23616;BME280;11985;49.404;7.734;2022-09-09T00:43:56;96871.16;;;12.66;98.97
23616;BME280;11985;49.404;7.734;2022-09-09T00:48:29;96874.81;;;12.65;99.10
23616;BME280;11985;49.404;7.734;2022-09-09T00:50:42;96874.38;;;12.68;99.21
23616;BME280;11985;49.404;7.734;2022-09-09T00:52:54;96857.13;;;12.65;99.23
23616;BME280;11985;49.404;7.734;2022-09-09T00:55:07;96860.94;;;12.69;99.32
23616;BME280;11985;49.404;7.734;2022-09-09T00:57:17;96862.09;;;12.74;99.32
23616;BME280;11985;49.404;7.734;2022-09-09T00:59:28;96861.59;;;12.77;99.45
23616;BME280;11985;49.404;7.734;2022-09-09T01:01:36;96864.72;;;12.85;99.40
23616;BME280;11985;49.404;7.734;2022-09-09T01:03:43;96864.28;;;12.88;99.62
23616;BME280;11985;49.404;7.734;2022-09-09T01:05:54;96863.38;;;12.94;99.65
23616;BME280;11985;49.404;7.734;2022-09-09T01:08:00;96856.78;;;12.97;99.75
23616;BME280;11985;49.404;7.734;2022-09-09T01:10:07;96860.00;;;12.99;99.62
23616;BME280;11985;49.404;7.734;2022-09-09T01:12:15;96857.94;;;13.01;99.42
23616;BME280;11985;49.404;7.734;2022-09-09T01:14:27;96861.50;;;13.07;99.38
23616;BME280;11985;49.404;7.734;2022-09-09T01:16:31;96860.03;;;13.11;99.33
23616;BME280;11985;49.404;7.734;2022-09-09T01:18:37;96859.78;;;13.12;99.19
23616;BME280;11985;49.404;7.734;2022-09-09T01:20:47;96858.75;;;13.13;99.07
23616;BME280;11985;49.404;7.734;2022-09-09T01:23:08;96861.38;;;13.13;99.04
23616;BME280;11985;49.404;7.734;2022-09-09T01:25:25;96857.94;;;13.13;98.82
23616;BME280;11985;49.404;7.734;2022-09-09T01:27:30;96857.81;;;13.08;98.70
23616;BME280;11985;49.404;7.734;2022-09-09T01:29:32;96866.00;;;13.06;98.41
23616;BME280;11985;49.404;7.734;2022-09-09T01:31:36;96857.94;;;13.01;98.49
23616;BME280;11985;49.404;7.734;2022-09-09T01:33:38;96860.00;;;12.99;98.50
23616;BME280;11985;49.404;7.734;2022-09-09T01:35:43;96862.66;;;12.99;98.43
23616;BME280;11985;49.404;7.734;2022-09-09T01:37:47;96860.59;;;13.01;98.54
23616;BME280;11985;49.404;7.734;2022-09-09T01:39:49;96867.13;;;12.99;98.51
23616;BME280;11985;49.404;7.734;2022-09-09T01:41:50;96867.38;;;12.97;98.51
23616;BME280;11985;49.404;7.734;2022-09-09T01:43:54;96866.94;;;13.00;98.41
23616;BME280;11985;49.404;7.734;2022-09-09T01:46:00;96871.72;;;13.03;98.39
23616;BME280;11985;49.404;7.734;2022-09-09T01:48:03;96870.69;;;13.04;98.40
23616;BME280;11985;49.404;7.734;2022-09-09T01:50:05;96875.97;;;13.04;98.23
23616;BME280;11985;49.404;7.734;2022-09-09T01:52:08;96877.03;;;13.03;98.30
23616;BME280;11985;49.404;7.734;2022-09-09T01:54:10;96877.72;;;12.99;98.24
23616;BME280;11985;49.404;7.734;2022-09-09T01:56:21;96874.25;;;12.98;98.17
23616;BME280;11985;49.404;7.734;2022-09-09T01:58:34;96878.97;;;12.96;98.18
23616;BME280;11985;49.404;7.734;2022-09-09T02:00:43;96873.13;;;12.94;98.16
23616;BME280;11985;49.404;7.734;2022-09-09T02:02:55;96873.13;;;12.94;98.20
23616;BME280;11985;49.404;7.734;2022-09-09T02:05:07;96874.03;;;12.88;98.15
23616;BME280;11985;49.404;7.734;2022-09-09T02:07:27;96872.91;;;12.84;98.14
23616;BME280;11985;49.404;7.734;2022-09-09T02:09:30;96878.19;;;12.84;98.37
23616;BME280;11985;49.404;7.734;2022-09-09T02:11:32;96872.91;;;12.84;98.22
23616;BME280;11985;49.404;7.734;2022-09-09T02:13:36;96872.91;;;12.84;98.41
23616;BME280;11985;49.404;7.734;2022-09-09T02:15:44;96868.19;;;12.86;98.54
23616;BME280;11985;49.404;7.734;2022-09-09T02:17:49;96870.00;;;12.85;98.42
23616;BME280;11985;49.404;7.734;2022-09-09T02:19:56;96868.19;;;12.86;98.64
23616;BME280;11985;49.404;7.734;2022-09-09T02:22:01;96866.00;;;12.83;98.65
23616;BME280;11985;49.404;7.734;2022-09-09T02:24:05;96862.78;;;12.81;98.60
23616;BME280;11985;49.404;7.734;2022-09-09T02:26:11;96854.28;;;12.79;98.52
23616;BME280;11985;49.404;7.734;2022-09-09T02:28:20;96864.50;;;12.75;98.55
23616;BME280;11985;49.404;7.734;2022-09-09T02:30:24;96865.75;;;12.73;98.52
23616;BME280;11985;49.404;7.734;2022-09-09T02:32:28;96859.31;;;12.68;98.50
23616;BME280;11985;49.404;7.734;2022-09-09T02:34:34;96867.13;;;12.63;98.63
23616;BME280;11985;49.404;7.734;2022-09-09T02:36:39;96856.56;;;12.63;98.54
23616;BME280;11985;49.404;7.734;2022-09-09T02:38:46;96857.03;;;12.60;98.54
23616;BME280;11985;49.404;7.734;2022-09-09T02:40:50;96857.47;;;12.57;98.61
23616;BME280;11985;49.404;7.734;2022-09-09T02:42:54;96856.78;;;12.50;98.61
23616;BME280;11985;49.404;7.734;2022-09-09T02:44:56;96851.94;;;12.47;98.62
23616;BME280;11985;49.404;7.734;2022-09-09T02:47:05;96848.13;;;12.43;98.72
23616;BME280;11985;49.404;7.734;2022-09-09T02:49:16;96845.97;;;12.40;98.77
23616;BME280;11985;49.404;7.734;2022-09-09T02:51:25;96846.41;;;12.37;98.95
23616;BME280;11985;49.404;7.734;2022-09-09T02:53:33;96843.63;;;12.32;99.14
23616;BME280;11985;49.404;7.734;2022-09-09T02:55:39;96834.78;;;12.26;99.05
23616;BME280;11985;49.404;7.734;2022-09-09T02:57:43;96842.94;;;12.25;99.10
23616;BME280;11985;49.404;7.734;2022-09-09T02:59:48;96842.94;;;12.25;99.12
23616;BME280;11985;49.404;7.734;2022-09-09T03:01:52;96842.38;;;12.23;99.35
23616;BME280;11985;49.404;7.734;2022-09-09T03:03:54;96840.19;;;12.20;99.33
23616;BME280;11985;49.404;7.734;2022-09-09T03:05:57;96848.31;;;12.18;99.40
23616;BME280;11985;49.404;7.734;2022-09-09T03:07:59;96844.28;;;12.15;99.51
23616;BME280;11985;49.404;7.734;2022-09-09T03:10:00;96854.28;;;12.13;99.64
23616;BME280;11985;49.404;7.734;2022-09-09T03:12:02;96847.84;;;12.09;99.67
23616;BME280;11985;49.404;7.734;2022-09-09T03:14:05;96848.72;;;12.03;99.61
23616;BME280;11985;49.404;7.734;2022-09-09T03:16:06;96847.00;;;11.97;99.63
23616;BME280;11985;49.404;7.734;2022-09-09T03:18:08;96848.03;;;11.96;99.71
23616;BME280;11985;49.404;7.734;2022-09-09T03:20:09;96845.63;;;11.95;99.64
23616;BME280;11985;49.404;7.734;2022-09-09T03:22:12;96854.78;;;11.92;99.79
23616;BME280;11985;49.404;7.734;2022-09-09T03:24:14;96851.09;;;11.93;99.83
23616;BME280;11985;49.404;7.734;2022-09-09T03:26:16;96856.03;;;11.89;100.00
23616;BME280;11985;49.404;7.734;2022-09-09T03:28:17;96856.84;;;11.90;100.00
23616;BME280;11985;49.404;7.734;2022-09-09T03:30:19;96853.53;;;11.95;100.00
23616;BME280;11985;49.404;7.734;2022-09-09T03:32:21;96858.97;;;12.00;100.00
23616;BME280;11985;49.404;7.734;2022-09-09T03:34:24;96851.38;;;12.03;100.00
23616;BME280;11985;49.404;7.734;2022-09-09T03:36:26;96856.56;;;12.10;100.00
23616;BME280;11985;49.404;7.734;2022-09-09T03:38:29;96857.38;;;12.10;100.00
23616;BME280;11985;49.404;7.734;2022-09-09T03:40:31;96852.69;;;12.12;100.00
23616;BME280;11985;49.404;7.734;2022-09-09T03:42:32;96856.91;;;12.13;100.00
23616;BME280;11985;49.404;7.734;2022-09-09T03:44:35;96859.69;;;12.19;100.00
23616;BME280;11985;49.404;7.734;2022-09-09T03:46:37;96852.34;;;12.21;100.00
23616;BME280;11985;49.404;7.734;2022-09-09T03:48:39;96854.78;;;12.22;100.00
23616;BME280;11985;49.404;7.734;2022-09-09T03:50:44;96850.63;;;12.26;100.00
23616;BME280;11985;49.404;7.734;2022-09-09T03:52:45;96851.00;;;12.30;100.00
23616;BME280;11985;49.404;7.734;2022-09-09T03:54:48;96853.28;;;12.38;100.00
23616;BME280;11985;49.404;7.734;2022-09-09T03:56:50;96855.06;;;12.44;100.00
23616;BME280;11985;49.404;7.734;2022-09-09T03:58:52;96849.44;;;12.52;100.00
23616;BME280;11985;49.404;7.734;2022-09-09T04:00:54;96851.75;;;12.60;100.00
23616;BME280;11985;49.404;7.734;2022-09-09T04:02:56;96853.00;;;12.69;100.00
23616;BME280;11985;49.404;7.734;2022-09-09T04:04:57;96849.13;;;12.72;100.00
23616;BME280;11985;49.404;7.734;2022-09-09T04:06:59;96853.59;;;12.72;100.00
23616;BME280;11985;49.404;7.734;2022-09-09T04:09:01;96848.31;;;12.72;100.00
23616;BME280;11985;49.404;7.734;2022-09-09T04:11:04;96856.22;;;12.72;100.00
23616;BME280;11985;49.404;7.734;2022-09-09T04:13:06;96851.75;;;12.72;100.00
23616;BME280;11985;49.404;7.734;2022-09-09T04:15:08;96858.88;;;12.72;99.87
23616;BME280;11985;49.404;7.734;2022-09-09T04:17:10;96860.94;;;12.69;99.83
23616;BME280;11985;49.404;7.734;2022-09-09T04:19:12;96857.25;;;12.71;99.77
23616;BME280;11985;49.404;7.734;2022-09-09T04:21:14;96868.41;;;12.73;99.93
23616;BME280;11985;49.404;7.734;2022-09-09T04:23:17;96869.44;;;12.72;99.83
23616;BME280;11985;49.404;7.734;2022-09-09T04:25:20;96866.22;;;12.69;99.93
23616;BME280;11985;49.404;7.734;2022-09-09T04:27:23;96871.25;;;12.71;100.00
23616;BME280;11985;49.404;7.734;2022-09-09T04:29:24;96871.06;;;12.73;100.00
23616;BME280;11985;49.404;7.734;2022-09-09T04:31:26;96877.38;;;12.72;99.90
23616;BME280;11985;49.404;7.734;2022-09-09T04:33:27;96873.47;;;12.74;100.00
23616;BME280;11985;49.404;7.734;2022-09-09T04:35:30;96870.56;;;12.76;100.00
23616;BME280;11985;49.404;7.734;2022-09-09T04:37:31;96874.25;;;12.75;100.00
23616;BME280;11985;49.404;7.734;2022-09-09T04:39:33;96872.19;;;12.77;100.00
23616;BME280;11985;49.404;7.734;2022-09-09T04:41:34;96869.66;;;12.82;100.00
23616;BME280;11985;49.404;7.734;2022-09-09T04:43:37;96879.78;;;12.85;100.00
23616;BME280;11985;49.404;7.734;2022-09-09T04:45:39;96869.22;;;12.85;100.00
23616;BME280;11985;49.404;7.734;2022-09-09T04:47:41;96877.72;;;12.87;100.00
23616;BME280;11985;49.404;7.734;2022-09-09T04:49:42;96876.09;;;12.86;100.00
23616;BME280;11985;49.404;7.734;2022-09-09T04:51:44;96877.72;;;12.87;100.00
23616;BME280;11985;49.404;7.734;2022-09-09T04:53:47;96881.28;;;12.92;100.00
23616;BME280;11985;49.404;7.734;2022-09-09T04:55:49;96885.31;;;12.95;100.00
23616;BME280;11985;49.404;7.734;2022-09-09T04:57:51;96882.78;;;13.00;100.00
23616;BME280;11985;49.404;7.734;2022-09-09T04:59:54;96887.16;;;13.06;100.00
23616;BME280;11985;49.404;7.734;2022-09-09T05:01:55;96885.88;;;13.09;100.00
23616;BME280;11985;49.404;7.734;2022-09-09T05:03:57;96893.13;;;13.13;100.00
23616;BME280;11985;49.404;7.734;2022-09-09T05:06:03;96892.66;;;13.16;100.00
23616;BME280;11985;49.404;7.734;2022-09-09T05:08:07;96891.63;;;13.17;100.00
23616;BME280;11985;49.404;7.734;2022-09-09T05:10:09;96890.16;;;13.22;100.00
23616;BME280;11985;49.404;7.734;2022-09-09T05:12:11;96896.59;;;13.26;100.00
23616;BME280;11985;49.404;7.734;2022-09-09T05:14:12;96891.88;;;13.28;99.93
23616;BME280;11985;49.404;7.734;2022-09-09T05:16:16;96891.09;;;13.27;99.94
23616;BME280;11985;49.404;7.734;2022-09-09T05:18:18;96890.72;;;13.24;99.68
23616;BME280;11985;49.404;7.734;2022-09-09T05:20:20;96893.38;;;13.24;99.73
23616;BME280;11985;49.404;7.734;2022-09-09T05:22:21;96885.44;;;13.24;99.75
23616;BME280;11985;49.404;7.734;2022-09-09T05:24:23;96893.38;;;13.24;99.71
23616;BME280;11985;49.404;7.734;2022-09-09T05:26:25;96896.81;;;13.24;99.75
23616;BME280;11985;49.404;7.734;2022-09-09T05:28:27;96888.09;;;13.24;99.60
23616;BME280;11985;49.404;7.734;2022-09-09T05:30:29;96893.38;;;13.24;99.72
23616;BME280;11985;49.404;7.734;2022-09-09T05:32:32;96890.84;;;13.29;99.85
23616;BME280;11985;49.404;7.734;2022-09-09T05:34:34;96889.81;;;13.30;99.92
23616;BME280;11985;49.404;7.734;2022-09-09T05:36:35;96885.56;;;13.29;99.81
23616;BME280;11985;49.404;7.734;2022-09-09T05:38:37;96884.50;;;13.30;99.84
23616;BME280;11985;49.404;7.734;2022-09-09T05:40:39;96892.44;;;13.30;99.90
23616;BME280;11985;49.404;7.734;2022-09-09T05:42:48;96891.41;;;13.31;99.78
23616;BME280;11985;49.404;7.734;2022-09-09T05:44:49;96900.50;;;13.35;99.85
23616;BME280;11985;49.404;7.734;2022-09-09T05:46:54;96903.69;;;13.37;99.70
23616;BME280;11985;49.404;7.734;2022-09-09T05:48:57;96906.94;;;13.39;99.65
23616;BME280;11985;49.404;7.734;2022-09-09T05:50:59;96910.38;;;13.39;99.79
23616;BME280;11985;49.404;7.734;2022-09-09T05:53:00;96913.84;;;13.40;99.62
23616;BME280;11985;49.404;7.734;2022-09-09T05:55:04;96913.34;;;13.43;99.59
23616;BME280;11985;49.404;7.734;2022-09-09T05:57:06;96914.75;;;13.45;99.71
23616;BME280;11985;49.404;7.734;2022-09-09T05:59:07;96920.59;;;13.47;99.61
23616;BME280;11985;49.404;7.734;2022-09-09T06:01:11;96940.03;;;13.53;99.62
23616;BME280;11985;49.404;7.734;2022-09-09T06:03:13;96928.06;;;13.62;99.67
23616;BME280;11985;49.404;7.734;2022-09-09T06:05:17;96931.72;;;13.73;99.71
23616;BME280;11985;49.404;7.734;2022-09-09T06:07:18;96935.19;;;13.73;99.87
23616;BME280;11985;49.404;7.734;2022-09-09T06:09:20;96936.53;;;13.76;99.86
23616;BME280;11985;49.404;7.734;2022-09-09T06:11:23;96943.69;;;13.76;100.00
23616;BME280;11985;49.404;7.734;2022-09-09T06:13:25;96929.41;;;13.77;100.00
23616;BME280;11985;49.404;7.734;2022-09-09T06:15:27;96933.69;;;13.78;100.00
23616;BME280;11985;49.404;7.734;2022-09-09T06:17:30;96928.28;;;13.72;100.00
23616;BME280;11985;49.404;7.734;2022-09-09T06:19:32;96924.03;;;13.71;100.00
23616;BME280;11985;49.404;7.734;2022-09-09T06:21:36;96917.78;;;13.78;100.00
23616;BME280;11985;49.404;7.734;2022-09-09T06:23:39;96918.00;;;13.76;100.00
23616;BME280;11985;49.404;7.734;2022-09-09T06:25:41;96924.69;;;13.79;100.00
23616;BME280;11985;49.404;7.734;2022-09-09T06:27:43;96918.13;;;13.81;100.00
23616;BME280;11985;49.404;7.734;2022-09-09T06:29:44;96914.75;;;13.86;100.00
23616;BME280;11985;49.404;7.734;2022-09-09T06:31:45;96921.22;;;13.90;100.00
23616;BME280;11985;49.404;7.734;2022-09-09T06:33:48;96922.91;;;13.96;100.00
23616;BME280;11985;49.404;7.734;2022-09-09T06:35:51;96925.81;;;13.94;100.00
23616;BME280;11985;49.404;7.734;2022-09-09T06:37:54;96923.16;;;13.94;100.00
23616;BME280;11985;49.404;7.734;2022-09-09T06:39:56;96923.84;;;13.90;100.00
23616;BME280;11985;49.404;7.734;2022-09-09T06:41:57;96923.75;;;13.85;100.00
23616;BME280;11985;49.404;7.734;2022-09-09T06:43:59;96922.59;;;13.81;100.00
23616;BME280;11985;49.404;7.734;2022-09-09T06:46:03;96921.56;;;13.82;100.00
23616;BME280;11985;49.404;7.734;2022-09-09T06:48:05;96925.00;;;13.82;100.00
23616;BME280;11985;49.404;7.734;2022-09-09T06:50:09;96918.69;;;13.83;100.00
23616;BME280;11985;49.404;7.734;2022-09-09T06:52:11;96930.53;;;13.81;100.00
23616;BME280;11985;49.404;7.734;2022-09-09T06:54:14;96928.56;;;13.88;100.00
23616;BME280;11985;49.404;7.734;2022-09-09T06:56:20;96925.00;;;13.94;100.00
23616;BME280;11985;49.404;7.734;2022-09-09T06:58:23;96923.81;;;14.02;100.00
23616;BME280;11985;49.404;7.734;2022-09-09T07:00:24;96924.38;;;14.04;100.00
23616;BME280;11985;49.404;7.734;2022-09-09T07:02:26;96926.31;;;14.08;100.00
23616;BME280;11985;49.404;7.734;2022-09-09T07:04:28;96918.72;;;14.12;100.00
23616;BME280;11985;49.404;7.734;2022-09-09T07:06:31;96929.16;;;14.18;100.00
23616;BME280;11985;49.404;7.734;2022-09-09T07:08:33;96930.06;;;14.24;100.00
23616;BME280;11985;49.404;7.734;2022-09-09T07:10:36;96925.09;;;14.27;100.00
23616;BME280;11985;49.404;7.734;2022-09-09T07:12:37;96922.56;;;14.33;100.00
23616;BME280;11985;49.404;7.734;2022-09-09T07:14:39;96925.19;;;14.33;100.00
23616;BME280;11985;49.404;7.734;2022-09-09T07:16:40;96932.66;;;14.36;100.00
23616;BME280;11985;49.404;7.734;2022-09-09T07:18:42;96930.00;;;14.36;100.00
23616;BME280;11985;49.404;7.734;2022-09-09T07:20:52;96928.50;;;14.40;100.00
23616;BME280;11985;49.404;7.734;2022-09-09T07:22:54;96937.00;;;14.42;100.00
23616;BME280;11985;49.404;7.734;2022-09-09T07:24:56;96933.66;;;14.46;100.00
23616;BME280;11985;49.404;7.734;2022-09-09T07:26:59;96937.13;;;14.47;100.00
23616;BME280;11985;49.404;7.734;2022-09-09T07:29:01;96930.78;;;14.48;100.00
23616;BME280;11985;49.404;7.734;2022-09-09T07:31:03;96939.31;;;14.50;100.00
23616;BME280;11985;49.404;7.734;2022-09-09T07:33:05;96933.44;;;14.48;100.00
23616;BME280;11985;49.404;7.734;2022-09-09T07:35:07;96935.16;;;14.42;100.00
23616;BME280;11985;49.404;7.734;2022-09-09T07:37:08;96931.66;;;14.53;100.00
23616;BME280;11985;49.404;7.734;2022-09-09T07:39:13;96938.19;;;14.63;100.00
23616;BME280;11985;49.404;7.734;2022-09-09T07:41:17;96942.00;;;14.67;100.00
23616;BME280;11985;49.404;7.734;2022-09-09T07:43:25;96937.31;;;14.74;99.94
23616;BME280;11985;49.404;7.734;2022-09-09T07:45:27;96938.78;;;14.82;99.70
23616;BME280;11985;49.404;7.734;2022-09-09T07:47:29;96940.63;;;14.81;99.57
23616;BME280;11985;49.404;7.734;2022-09-09T07:49:30;96949.25;;;14.88;99.18
23616;BME280;11985;49.404;7.734;2022-09-09T07:51:34;96939.56;;;14.99;99.24
23616;BME280;11985;49.404;7.734;2022-09-09T07:53:36;96940.63;;;14.98;98.98
23616;BME280;11985;49.404;7.734;2022-09-09T07:55:39;96938.56;;;15.00;98.61
23616;BME280;11985;49.404;7.734;2022-09-09T07:57:40;96939.56;;;14.99;98.44
23616;BME280;11985;49.404;7.734;2022-09-09T07:59:43;96938.84;;;15.03;98.14
23616;BME280;11985;49.404;7.734;2022-09-09T08:01:47;96946.34;;;15.07;98.07
23616;BME280;11985;49.404;7.734;2022-09-09T08:03:54;96950.75;;;15.01;97.66
23616;BME280;11985;49.404;7.734;2022-09-09T08:06:00;96952.38;;;15.02;97.60
23616;BME280;11985;49.404;7.734;2022-09-09T08:08:02;96958.00;;;15.05;97.60
23616;BME280;11985;49.404;7.734;2022-09-09T08:10:05;96958.81;;;15.06;97.38
23616;BME280;11985;49.404;7.734;2022-09-09T08:12:08;96953.66;;;15.16;97.60
23616;BME280;11985;49.404;7.734;2022-09-09T08:14:10;96963.13;;;15.12;96.98
23616;BME280;11985;49.404;7.734;2022-09-09T08:16:14;96962.00;;;15.08;96.29
23616;BME280;11985;49.404;7.734;2022-09-09T08:18:16;96971.66;;;15.14;96.20
23616;BME280;11985;49.404;7.734;2022-09-09T08:20:18;96973.03;;;15.17;95.94
23616;BME280;11985;49.404;7.734;2022-09-09T08:22:19;96976.16;;;15.14;95.60
23616;BME280;11985;49.404;7.734;2022-09-09T08:24:22;96983.56;;;15.12;94.91
23616;BME280;11985;49.404;7.734;2022-09-09T08:26:25;96969.56;;;15.16;94.57
23616;BME280;11985;49.404;7.734;2022-09-09T08:28:28;96975.97;;;15.20;94.46
23616;BME280;11985;49.404;7.734;2022-09-09T08:30:31;96975.59;;;15.28;94.03
23616;BME280;11985;49.404;7.734;2022-09-09T08:32:33;96975.66;;;15.34;94.10
23616;BME280;11985;49.404;7.734;2022-09-09T08:34:35;96979.41;;;15.38;93.92
23616;BME280;11985;49.404;7.734;2022-09-09T08:36:38;96980.63;;;15.47;93.83
23616;BME280;11985;49.404;7.734;2022-09-09T08:38:41;96976.91;;;15.48;93.42
23616;BME280;11985;49.404;7.734;2022-09-09T08:40:42;96977.25;;;15.51;92.95
23616;BME280;11985;49.404;7.734;2022-09-09T08:42:50;96979.19;;;15.56;92.49
23616;BME280;11985;49.404;7.734;2022-09-09T08:45:02;96979.47;;;15.59;92.38
23616;BME280;11985;49.404;7.734;2022-09-09T08:47:11;96972.41;;;15.65;91.76
23616;BME280;11985;49.404;7.734;2022-09-09T08:49:24;96974.34;;;15.70;91.32
23616;BME280;11985;49.404;7.734;2022-09-09T08:51:30;96982.38;;;15.75;91.18
23616;BME280;11985;49.404;7.734;2022-09-09T08:53:38;96981.09;;;15.77;90.43
23616;BME280;11985;49.404;7.734;2022-09-09T08:55:45;96979.31;;;15.83;89.84
23616;BME280;11985;49.404;7.734;2022-09-09T08:57:49;96978.41;;;15.94;89.64
23616;BME280;11985;49.404;7.734;2022-09-09T08:59:53;96971.28;;;16.00;89.34
23616;BME280;11985;49.404;7.734;2022-09-09T09:02:01;96970.84;;;16.08;88.83
23616;BME280;11985;49.404;7.734;2022-09-09T09:04:27;96976.47;;;16.12;88.43
23616;BME280;11985;49.404;7.734;2022-09-09T09:06:41;96977.81;;;16.14;88.23
23616;BME280;11985;49.404;7.734;2022-09-09T09:08:52;96978.47;;;16.21;87.66
23616;BME280;11985;49.404;7.734;2022-09-09T09:10:57;96973.38;;;16.20;86.56
23616;BME280;11985;49.404;7.734;2022-09-09T09:13:00;96973.09;;;16.16;85.62
23616;BME280;11985;49.404;7.734;2022-09-09T09:15:11;96968.91;;;16.25;85.09
23616;BME280;11985;49.404;7.734;2022-09-09T09:17:19;96972.94;;;16.28;84.70
23616;BME280;11985;49.404;7.734;2022-09-09T09:19:21;96969.38;;;16.17;84.14
23616;BME280;11985;49.404;7.734;2022-09-09T09:21:33;96977.28;;;16.12;84.15
23616;BME280;11985;49.404;7.734;2022-09-09T09:23:40;96973.38;;;15.98;84.05
23616;BME280;11985;49.404;7.734;2022-09-09T09:25:44;96973.81;;;15.90;83.84
23616;BME280;11985;49.404;7.734;2022-09-09T09:27:47;96979.59;;;15.87;84.08
23616;BME280;11985;49.404;7.734;2022-09-09T09:29:51;96969.44;;;16.00;84.51
23616;BME280;11985;49.404;7.734;2022-09-09T09:31:59;96971.88;;;16.29;84.95
23616;BME280;11985;49.404;7.734;2022-09-09T09:34:03;96957.88;;;16.66;85.16
23616;BME280;11985;49.404;7.734;2022-09-09T09:36:05;96962.72;;;16.96;84.12
23616;BME280;11985;49.404;7.734;2022-09-09T09:38:16;96967.28;;;17.37;83.68
23616;BME280;11985;49.404;7.734;2022-09-09T09:40:20;96963.63;;;17.49;81.39
23616;BME280;11985;49.404;7.734;2022-09-09T09:42:22;96957.88;;;17.62;80.22
23616;BME280;11985;49.404;7.734;2022-09-09T09:44:26;96962.69;;;17.70;78.98
23616;BME280;11985;49.404;7.734;2022-09-09T09:46:28;96962.31;;;17.51;78.08
23616;BME280;11985;49.404;7.734;2022-09-09T09:48:30;96961.47;;;17.40;77.45
23616;BME280;11985;49.404;7.734;2022-09-09T09:50:33;96956.06;;;17.30;77.10
23616;BME280;11985;49.404;7.734;2022-09-09T09:52:35;96960.25;;;17.21;77.06
23616;BME280;11985;49.404;7.734;2022-09-09T09:54:39;96956.16;;;17.08;76.87
23616;BME280;11985;49.404;7.734;2022-09-09T09:56:43;96955.41;;;17.13;77.16
23616;BME280;11985;49.404;7.734;2022-09-09T09:58:50;96958.16;;;17.23;77.04
23616;BME280;11985;49.404;7.734;2022-09-09T10:00:53;96960.72;;;17.13;76.69
23616;BME280;11985;49.404;7.734;2022-09-09T10:02:55;96963.94;;;17.15;76.51
23616;BME280;11985;49.404;7.734;2022-09-09T10:05:01;96946.22;;;17.31;76.67
23616;BME280;11985;49.404;7.734;2022-09-09T10:07:10;96950.63;;;17.52;76.85
23616;BME280;11985;49.404;7.734;2022-09-09T10:09:21;96936.28;;;17.58;75.73
23616;BME280;11985;49.404;7.734;2022-09-09T10:11:32;96949.31;;;17.60;74.95
23616;BME280;11985;49.404;7.734;2022-09-09T10:13:45;96952.25;;;17.58;74.20
23616;BME280;11985;49.404;7.734;2022-09-09T10:15:58;96950.72;;;17.67;74.37
23616;BME280;11985;49.404;7.734;2022-09-09T10:18:12;96952.69;;;17.87;74.40
23616;BME280;11985;49.404;7.734;2022-09-09T10:20:27;96942.38;;;18.01;72.99
23616;BME280;11985;49.404;7.734;2022-09-09T10:22:33;96953.88;;;18.17;72.30
23616;BME280;11985;49.404;7.734;2022-09-09T10:24:56;96953.50;;;17.93;71.39
23616;BME280;11985;49.404;7.734;2022-09-09T10:27:08;96957.47;;;17.85;71.34
23616;BME280;11985;49.404;7.734;2022-09-09T10:29:28;96949.22;;;17.87;71.12
23616;BME280;11985;49.404;7.734;2022-09-09T10:31:41;96950.97;;;17.66;70.93
23616;BME280;11985;49.404;7.734;2022-09-09T10:33:50;96953.50;;;17.46;71.31
23616;BME280;11985;49.404;7.734;2022-09-09T10:35:57;96945.94;;;17.27;71.72
23616;BME280;11985;49.404;7.734;2022-09-09T10:38:17;96965.03;;;17.19;72.34
23616;BME280;11985;49.404;7.734;2022-09-09T10:40:26;96958.19;;;17.28;72.87
23616;BME280;11985;49.404;7.734;2022-09-09T10:42:32;96965.94;;;17.35;73.37
23616;BME280;11985;49.404;7.734;2022-09-09T10:44:50;96971.16;;;17.20;73.57
23616;BME280;11985;49.404;7.734;2022-09-09T10:47:07;96953.25;;;17.10;74.36
23616;BME280;11985;49.404;7.734;2022-09-09T10:49:21;96967.16;;;16.85;75.16
23616;BME280;11985;49.404;7.734;2022-09-09T10:51:33;96955.75;;;16.62;75.75
23616;BME280;11985;49.404;7.734;2022-09-09T10:53:46;96965.13;;;16.43;76.61
23616;BME280;11985;49.404;7.734;2022-09-09T10:55:52;96961.25;;;16.29;77.42
23616;BME280;11985;49.404;7.734;2022-09-09T10:57:58;96957.19;;;16.21;78.27
23616;BME280;11985;49.404;7.734;2022-09-09T11:00:04;96955.03;;;16.18;78.86
23616;BME280;11985;49.404;7.734;2022-09-09T11:02:14;96970.97;;;16.18;79.75